Main page
METAR-TAF:

METAR-TAF

Airports :

Jersey Airport

Jersey,

latitude: 49-13N, longitude: 002-12W, elevation: 84 m

Current weather observation

The report was made 17 minutes ago, at 09:50 UTC
Wind 8 kt from the North, varying between North/Northwest and North/Northeast
Temperature 10°C
Humidity 76%
Pressure 1031 hPa
Visibility 10 km or more
Few clouds at a height of 1500 ft

METAR: EGJJ 240950Z 01008KT 330V030 9999 FEW015 10/06 Q1031

Time: 10:07 (10:07 UTC)

Forecast

The report was made 2 hours and 8 minutes ago, at 07:59 UTC
Forecast valid from 24 at 09 UTC to 24 at 18 UTC
Wind 8 kt from the East
Visibility 10 km or more
Few clouds at a height of 2200 ft
Becoming
from 24 at 10 UTC to 24 at 12 UTC
Wind 12 kt from the North

TAF: EGJJ 240759Z 2409/2418 08008KT 9999 FEW022 BECMG 2410/2412 36012KT

Weather observations and forecasts of more than 4000 airports (METAR and TAF reports).

The available stations are represented by yellow and red dots on the map.

Hover mouse over dot to see the name of the station.

Then click to see weather observations and forecasts.

To change the map : click on the green buttons with a black cross to zoom in, on the green button with a dash to zoom out, or on the green arrows for adjacent maps.


METAR-TAF: